sensor_id;sensor_type;location;lat;lon;timestamp;pressure;altitude;pressure_sealevel;temperature
60731;BMP280;46580;52.114;11.674;2022-08-01T00:00:45;100753.41;;;20.53
60731;BMP280;46580;52.114;11.674;2022-08-01T00:03:10;100749.81;;;20.54
60731;BMP280;46580;52.114;11.674;2022-08-01T00:05:38;100755.47;;;20.58
60731;BMP280;46580;52.114;11.674;2022-08-01T00:08:04;100761.78;;;20.49
60731;BMP280;46580;52.114;11.674;2022-08-01T00:10:29;100758.34;;;20.48
60731;BMP280;46580;52.114;11.674;2022-08-01T00:12:55;100754.75;;;20.49
60731;BMP280;46580;52.114;11.674;2022-08-01T00:15:22;100742.38;;;20.44
60731;BMP280;46580;52.114;11.674;2022-08-01T00:17:48;100753.22;;;20.41
60731;BMP280;46580;52.114;11.674;2022-08-01T00:20:14;100741.13;;;20.40
60731;BMP280;46580;52.114;11.674;2022-08-01T00:22:41;100734.91;;;20.41
60731;BMP280;46580;52.114;11.674;2022-08-01T00:25:07;100741.81;;;20.34
60731;BMP280;46580;52.114;11.674;2022-08-01T00:27:35;100736.75;;;20.32
60731;BMP280;46580;52.114;11.674;2022-08-01T00:30:08;100744.06;;;20.37
60731;BMP280;46580;52.114;11.674;2022-08-01T00:32:42;100731.69;;;20.31
60731;BMP280;46580;52.114;11.674;2022-08-01T00:35:08;100737.22;;;20.36
60731;BMP280;46580;52.114;11.674;2022-08-01T00:37:33;100729.47;;;20.42
60731;BMP280;46580;52.114;11.674;2022-08-01T00:39:59;100735.25;;;20.38
60731;BMP280;46580;52.114;11.674;2022-08-01T00:42:24;100724.97;;;20.36
60731;BMP280;46580;52.114;11.674;2022-08-01T00:44:52;100735.41;;;20.36
60731;BMP280;46580;52.114;11.674;2022-08-01T00:47:17;100725.63;;;20.30
60731;BMP280;46580;52.114;11.674;2022-08-01T00:49:42;100728.41;;;20.29
60731;BMP280;46580;52.114;11.674;2022-08-01T00:52:08;100725.53;;;20.24
60731;BMP280;46580;52.114;11.674;2022-08-01T00:54:34;100736.47;;;20.28
60731;BMP280;46580;52.114;11.674;2022-08-01T00:57:02;100718.97;;;20.28
60731;BMP280;46580;52.114;11.674;2022-08-01T00:59:27;100726.19;;;20.26
60731;BMP280;46580;52.114;11.674;2022-08-01T01:01:53;100721.59;;;20.28
60731;BMP280;46580;52.114;11.674;2022-08-01T01:04:18;100722.69;;;20.33
60731;BMP280;46580;52.114;11.674;2022-08-01T01:09:57;100723.81;;;20.39
60731;BMP280;46580;52.114;11.674;2022-08-01T01:12:44;100723.34;;;20.35
60731;BMP280;46580;52.114;11.674;2022-08-01T01:18:23;100714.03;;;20.33
60731;BMP280;46580;52.114;11.674;2022-08-01T01:23:59;100711.28;;;20.34
60731;BMP280;46580;52.114;11.674;2022-08-01T01:29:17;100716.00;;;20.31
60731;BMP280;46580;52.114;11.674;2022-08-01T01:31:53;100717.16;;;20.29
60731;BMP280;46580;52.114;11.674;2022-08-01T01:34:21;100712.94;;;20.28
60731;BMP280;46580;52.114;11.674;2022-08-01T01:36:49;100715.91;;;20.25
60731;BMP280;46580;52.114;11.674;2022-08-01T01:39:15;100714.75;;;20.27
60731;BMP280;46580;52.114;11.674;2022-08-01T01:41:42;100711.91;;;20.29
60731;BMP280;46580;52.114;11.674;2022-08-01T01:44:10;100704.28;;;20.27
60731;BMP280;46580;52.114;11.674;2022-08-01T01:46:39;100709.50;;;20.27
60731;BMP280;46580;52.114;11.674;2022-08-01T01:49:08;100706.25;;;20.25
60731;BMP280;46580;52.114;11.674;2022-08-01T01:51:37;100702.81;;;20.25
60731;BMP280;46580;52.114;11.674;2022-08-01T01:54:03;100704.63;;;20.24
60731;BMP280;46580;52.114;11.674;2022-08-01T01:56:29;100710.50;;;20.26
60731;BMP280;46580;52.114;11.674;2022-08-01T01:59:13;100706.91;;;20.27
60731;BMP280;46580;52.114;11.674;2022-08-01T02:01:39;100712.41;;;20.32
60731;BMP280;46580;52.114;11.674;2022-08-01T02:04:05;100708.69;;;20.27
60731;BMP280;46580;52.114;11.674;2022-08-01T02:06:32;100710.31;;;20.28
60731;BMP280;46580;52.114;11.674;2022-08-01T02:09:00;100715.34;;;20.29
60731;BMP280;46580;52.114;11.674;2022-08-01T02:11:27;100718.34;;;20.26
60731;BMP280;46580;52.114;11.674;2022-08-01T02:14:02;100720.94;;;20.26
60731;BMP280;46580;52.114;11.674;2022-08-01T02:16:31;100720.78;;;20.28
60731;BMP280;46580;52.114;11.674;2022-08-01T02:18:58;100718.34;;;20.26
60731;BMP280;46580;52.114;11.674;2022-08-01T02:21:39;100719.97;;;20.27
60731;BMP280;46580;52.114;11.674;2022-08-01T02:26:42;100719.97;;;20.27
60731;BMP280;46580;52.114;11.674;2022-08-01T02:29:11;100727.59;;;20.29
60731;BMP280;46580;52.114;11.674;2022-08-01T02:31:41;100716.72;;;20.25
60731;BMP280;46580;52.114;11.674;2022-08-01T02:34:17;100726.81;;;20.28
60731;BMP280;46580;52.114;11.674;2022-08-01T02:36:44;100726.81;;;20.28
60731;BMP280;46580;52.114;11.674;2022-08-01T02:39:14;100721.59;;;20.28
60731;BMP280;46580;52.114;11.674;2022-08-01T02:41:42;100723.84;;;20.31
60731;BMP280;46580;52.114;11.674;2022-08-01T02:44:10;100724.16;;;20.36
60731;BMP280;46580;52.114;11.674;2022-08-01T02:46:49;100719.25;;;20.33
60731;BMP280;46580;52.114;11.674;2022-08-01T02:49:16;100723.50;;;20.34
60731;BMP280;46580;52.114;11.674;2022-08-01T02:51:46;100721.72;;;20.34
60731;BMP280;46580;52.114;11.674;2022-08-01T02:54:15;100717.31;;;20.35
60731;BMP280;46580;52.114;11.674;2022-08-01T02:56:42;100717.16;;;20.29
60731;BMP280;46580;52.114;11.674;2022-08-01T02:59:12;100727.16;;;20.25
60731;BMP280;46580;52.114;11.674;2022-08-01T03:01:40;100727.06;;;20.19
60731;BMP280;46580;52.114;11.674;2022-08-01T03:04:10;100723.97;;;20.15
60731;BMP280;46580;52.114;11.674;2022-08-01T03:06:36;100727.59;;;20.14
60731;BMP280;46580;52.114;11.674;2022-08-01T03:09:04;100729.41;;;20.14
60731;BMP280;46580;52.114;11.674;2022-08-01T03:11:32;100727.41;;;20.16
60731;BMP280;46580;52.114;11.674;2022-08-01T03:14:09;100730.81;;;20.16
60731;BMP280;46580;52.114;11.674;2022-08-01T03:16:39;100731.81;;;20.15
60731;BMP280;46580;52.114;11.674;2022-08-01T03:19:07;100735.06;;;20.17
60731;BMP280;46580;52.114;11.674;2022-08-01T03:21:34;100745.53;;;20.17
60731;BMP280;46580;52.114;11.674;2022-08-01T03:24:01;100746.16;;;20.19
60731;BMP280;46580;52.114;11.674;2022-08-01T03:26:32;100740.28;;;20.17
60731;BMP280;46580;52.114;11.674;2022-08-01T03:29:17;100754.00;;;20.19
60731;BMP280;46580;52.114;11.674;2022-08-01T03:31:51;100741.59;;;20.21
60731;BMP280;46580;52.114;11.674;2022-08-01T03:34:20;100750.59;;;20.19
60731;BMP280;46580;52.114;11.674;2022-08-01T03:37:09;100763.59;;;20.05
60731;BMP280;46580;52.114;11.674;2022-08-01T03:39:49;100760.25;;;19.89
60731;BMP280;46580;52.114;11.674;2022-08-01T03:42:20;100759.88;;;19.77
60731;BMP280;46580;52.114;11.674;2022-08-01T03:44:53;100764.81;;;19.73
60731;BMP280;46580;52.114;11.674;2022-08-01T03:47:22;100755.84;;;19.67
60731;BMP280;46580;52.114;11.674;2022-08-01T03:49:50;100760.88;;;19.69
60731;BMP280;46580;52.114;11.674;2022-08-01T03:52:18;100757.47;;;19.68
60731;BMP280;46580;52.114;11.674;2022-08-01T03:54:47;100763.50;;;19.69
60731;BMP280;46580;52.114;11.674;2022-08-01T03:57:19;100759.91;;;19.70
60731;BMP280;46580;52.114;11.674;2022-08-01T03:59:51;100760.38;;;19.73
60731;BMP280;46580;52.114;11.674;2022-08-01T04:02:16;100763.81;;;19.74
60731;BMP280;46580;52.114;11.674;2022-08-01T04:04:43;100762.03;;;19.74
60731;BMP280;46580;52.114;11.674;2022-08-01T04:07:29;100748.75;;;19.75
60731;BMP280;46580;52.114;11.674;2022-08-01T04:09:55;100754.19;;;19.74
60731;BMP280;46580;52.114;11.674;2022-08-01T04:12:22;100754.97;;;19.74
60731;BMP280;46580;52.114;11.674;2022-08-01T04:14:48;100754.47;;;19.79
60731;BMP280;46580;52.114;11.674;2022-08-01T04:17:17;100756.91;;;19.80
60731;BMP280;46580;52.114;11.674;2022-08-01T04:19:43;100754.59;;;19.85
60731;BMP280;46580;52.114;11.674;2022-08-01T04:22:10;100757.50;;;19.90
60731;BMP280;46580;52.114;11.674;2022-08-01T04:24:41;100758.13;;;19.92
60731;BMP280;46580;52.114;11.674;2022-08-01T04:27:16;100763.38;;;19.92
60731;BMP280;46580;52.114;11.674;2022-08-01T04:29:47;100761.19;;;19.95
60731;BMP280;46580;52.114;11.674;2022-08-01T04:32:16;100756.78;;;19.96
60731;BMP280;46580;52.114;11.674;2022-08-01T04:34:44;100760.22;;;19.96
60731;BMP280;46580;52.114;11.674;2022-08-01T04:37:12;100754.28;;;20.02
60731;BMP280;46580;52.114;11.674;2022-08-01T04:39:38;100753.84;;;19.99
60731;BMP280;46580;52.114;11.674;2022-08-01T04:42:06;100754.78;;;20.06
60731;BMP280;46580;52.114;11.674;2022-08-01T04:44:32;100763.06;;;20.09
60731;BMP280;46580;52.114;11.674;2022-08-01T04:46:59;100763.88;;;20.10
60731;BMP280;46580;52.114;11.674;2022-08-01T04:49:25;100773.72;;;20.08
60731;BMP280;46580;52.114;11.674;2022-08-01T04:51:54;100769.22;;;20.16
60731;BMP280;46580;52.114;11.674;2022-08-01T04:54:27;100768.88;;;20.19
60731;BMP280;46580;52.114;11.674;2022-08-01T04:56:53;100766.09;;;20.20
60731;BMP280;46580;52.114;11.674;2022-08-01T04:59:20;100762.50;;;20.21
60731;BMP280;46580;52.114;11.674;2022-08-01T05:02:09;100776.72;;;20.19
60731;BMP280;46580;52.114;11.674;2022-08-01T05:04:35;100776.56;;;20.20
60731;BMP280;46580;52.114;11.674;2022-08-01T05:07:01;100780.16;;;20.19
60731;BMP280;46580;52.114;11.674;2022-08-01T05:09:26;100769.63;;;20.27
60731;BMP280;46580;52.114;11.674;2022-08-01T05:11:52;100777.09;;;20.30
60731;BMP280;46580;52.114;11.674;2022-08-01T05:14:17;100781.53;;;20.29
60731;BMP280;46580;52.114;11.674;2022-08-01T05:16:44;100787.22;;;20.33
60731;BMP280;46580;52.114;11.674;2022-08-01T05:19:09;100785.94;;;20.29
60731;BMP280;46580;52.114;11.674;2022-08-01T05:21:35;100784.03;;;20.23
60731;BMP280;46580;52.114;11.674;2022-08-01T05:24:00;100784.69;;;20.25
60731;BMP280;46580;52.114;11.674;2022-08-01T05:26:25;100787.47;;;20.24
60731;BMP280;46580;52.114;11.674;2022-08-01T05:28:51;100788.28;;;20.24
60731;BMP280;46580;52.114;11.674;2022-08-01T05:31:16;100796.34;;;20.15
60731;BMP280;46580;52.114;11.674;2022-08-01T05:33:41;100799.53;;;20.03
60731;BMP280;46580;52.114;11.674;2022-08-01T05:36:07;100799.28;;;19.90
60731;BMP280;46580;52.114;11.674;2022-08-01T05:38:32;100804.88;;;19.87
60731;BMP280;46580;52.114;11.674;2022-08-01T05:41:00;100796.25;;;19.79
60731;BMP280;46580;52.114;11.674;2022-08-01T05:43:26;100805.41;;;19.75
60731;BMP280;46580;52.114;11.674;2022-08-01T05:45:54;100807.84;;;19.76
60731;BMP280;46580;52.114;11.674;2022-08-01T05:48:19;100807.03;;;19.76
60731;BMP280;46580;52.114;11.674;2022-08-01T05:50:45;100813.09;;;19.76
60731;BMP280;46580;52.114;11.674;2022-08-01T05:53:12;100818.47;;;19.75
60731;BMP280;46580;52.114;11.674;2022-08-01T05:55:38;100814.38;;;19.80
60731;BMP280;46580;52.114;11.674;2022-08-01T05:58:03;100814.50;;;19.87
60731;BMP280;46580;52.114;11.674;2022-08-01T06:00:29;100813.00;;;19.92
60731;BMP280;46580;52.114;11.674;2022-08-01T06:02:54;100812.16;;;19.99
60731;BMP280;46580;52.114;11.674;2022-08-01T06:05:20;100820.34;;;20.18
60731;BMP280;46580;52.114;11.674;2022-08-01T06:07:45;100812.16;;;20.21
60731;BMP280;46580;52.114;11.674;2022-08-01T06:10:10;100804.72;;;20.32
60731;BMP280;46580;52.114;11.674;2022-08-01T06:12:36;100818.53;;;20.63
60731;BMP280;46580;52.114;11.674;2022-08-01T06:15:03;100820.66;;;20.45
60731;BMP280;46580;52.114;11.674;2022-08-01T06:17:28;100817.38;;;20.65
60731;BMP280;46580;52.114;11.674;2022-08-01T06:19:54;100834.06;;;20.64
60731;BMP280;46580;52.114;11.674;2022-08-01T06:22:19;100827.19;;;20.63
60731;BMP280;46580;52.114;11.674;2022-08-01T06:24:45;100840.28;;;20.63
60731;BMP280;46580;52.114;11.674;2022-08-01T06:27:10;100839.06;;;20.73
60731;BMP280;46580;52.114;11.674;2022-08-01T06:29:35;100842.28;;;20.61
60731;BMP280;46580;52.114;11.674;2022-08-01T06:32:01;100840.00;;;20.58
60731;BMP280;46580;52.114;11.674;2022-08-01T06:34:26;100842.44;;;20.60
60731;BMP280;46580;52.114;11.674;2022-08-01T06:36:51;100848.88;;;20.49
60731;BMP280;46580;52.114;11.674;2022-08-01T06:39:17;100849.31;;;20.61
60731;BMP280;46580;52.114;11.674;2022-08-01T06:41:42;100852.41;;;20.78
60731;BMP280;46580;52.114;11.674;2022-08-01T06:44:11;100850.34;;;20.74
60731;BMP280;46580;52.114;11.674;2022-08-01T06:46:36;100851.69;;;20.84
60731;BMP280;46580;52.114;11.674;2022-08-01T06:49:01;100857.19;;;20.75
60731;BMP280;46580;52.114;11.674;2022-08-01T06:51:27;100858.22;;;20.88
60731;BMP280;46580;52.114;11.674;2022-08-01T06:53:52;100847.94;;;21.01
60731;BMP280;46580;52.114;11.674;2022-08-01T06:56:18;100855.00;;;21.00
60731;BMP280;46580;52.114;11.674;2022-08-01T06:58:44;100852.59;;;21.13
60731;BMP280;46580;52.114;11.674;2022-08-01T07:01:09;100850.63;;;21.15
60731;BMP280;46580;52.114;11.674;2022-08-01T07:03:35;100855.31;;;21.19
60731;BMP280;46580;52.114;11.674;2022-08-01T07:06:01;100857.38;;;21.23
60731;BMP280;46580;52.114;11.674;2022-08-01T07:08:27;100861.72;;;21.17
60731;BMP280;46580;52.114;11.674;2022-08-01T07:10:52;100862.28;;;21.04
60731;BMP280;46580;52.114;11.674;2022-08-01T07:13:18;100872.66;;;20.98
60731;BMP280;46580;52.114;11.674;2022-08-01T07:15:47;100865.28;;;21.02
60731;BMP280;46580;52.114;11.674;2022-08-01T07:18:12;100870.97;;;21.05
60731;BMP280;46580;52.114;11.674;2022-08-01T07:20:38;100877.66;;;21.07
60731;BMP280;46580;52.114;11.674;2022-08-01T07:23:07;100875.16;;;21.14
60731;BMP280;46580;52.114;11.674;2022-08-01T07:25:32;100873.00;;;21.31
60731;BMP280;46580;52.114;11.674;2022-08-01T07:27:57;100870.56;;;21.44
60731;BMP280;46580;52.114;11.674;2022-08-01T07:30:23;100874.47;;;21.48
60731;BMP280;46580;52.114;11.674;2022-08-01T07:32:48;100876.63;;;21.59
60731;BMP280;46580;52.114;11.674;2022-08-01T07:35:14;100877.09;;;21.62
60731;BMP280;46580;52.114;11.674;2022-08-01T07:37:39;100879.31;;;21.79
60731;BMP280;46580;52.114;11.674;2022-08-01T07:40:05;100877.47;;;22.22
60731;BMP280;46580;52.114;11.674;2022-08-01T07:42:31;100883.94;;;22.60
60731;BMP280;46580;52.114;11.674;2022-08-01T07:44:56;100883.16;;;22.46
60731;BMP280;46580;52.114;11.674;2022-08-01T07:47:26;100888.22;;;22.47
60731;BMP280;46580;52.114;11.674;2022-08-01T07:49:52;100885.22;;;22.30
60731;BMP280;46580;52.114;11.674;2022-08-01T07:52:17;100885.50;;;22.20
60731;BMP280;46580;52.114;11.674;2022-08-01T07:54:43;100886.19;;;21.94
60731;BMP280;46580;52.114;11.674;2022-08-01T07:57:08;100894.16;;;21.86
60731;BMP280;46580;52.114;11.674;2022-08-01T07:59:34;100894.88;;;21.66
60731;BMP280;46580;52.114;11.674;2022-08-01T08:02:00;100905.25;;;21.10
60731;BMP280;46580;52.114;11.674;2022-08-01T08:04:26;100911.44;;;20.81
60731;BMP280;46580;52.114;11.674;2022-08-01T08:06:52;100911.66;;;20.49
60731;BMP280;46580;52.114;11.674;2022-08-01T08:09:18;100916.44;;;20.68
60731;BMP280;46580;52.114;11.674;2022-08-01T08:11:45;100910.22;;;20.47
60731;BMP280;46580;52.114;11.674;2022-08-01T08:14:11;100916.88;;;20.20
60731;BMP280;46580;52.114;11.674;2022-08-01T08:16:36;100904.88;;;20.33
60731;BMP280;46580;52.114;11.674;2022-08-01T08:19:02;100909.22;;;20.18
60731;BMP280;46580;52.114;11.674;2022-08-01T08:21:27;100911.50;;;20.21
60731;BMP280;46580;52.114;11.674;2022-08-01T08:23:53;100909.09;;;20.42
60731;BMP280;46580;52.114;11.674;2022-08-01T08:26:37;100924.06;;;20.18
60731;BMP280;46580;52.114;11.674;2022-08-01T08:29:03;100918.69;;;20.19
60731;BMP280;46580;52.114;11.674;2022-08-01T08:31:28;100920.66;;;20.17
60731;BMP280;46580;52.114;11.674;2022-08-01T08:33:54;100912.00;;;20.17
60731;BMP280;46580;52.114;11.674;2022-08-01T08:36:19;100922.28;;;20.18
60731;BMP280;46580;52.114;11.674;2022-08-01T08:38:44;100924.84;;;20.26
60731;BMP280;46580;52.114;11.674;2022-08-01T08:41:10;100928.16;;;20.20
60731;BMP280;46580;52.114;11.674;2022-08-01T08:43:35;100928.63;;;20.24
60731;BMP280;46580;52.114;11.674;2022-08-01T08:46:01;100933.72;;;20.17
60731;BMP280;46580;52.114;11.674;2022-08-01T08:48:27;100930.31;;;20.09
60731;BMP280;46580;52.114;11.674;2022-08-01T08:50:53;100941.59;;;20.47
60731;BMP280;46580;52.114;11.674;2022-08-01T08:53:20;100947.44;;;20.49
60731;BMP280;46580;52.114;11.674;2022-08-01T08:55:46;100952.19;;;20.53
60731;BMP280;46580;52.114;11.674;2022-08-01T08:58:13;100954.84;;;20.46
60731;BMP280;46580;52.114;11.674;2022-08-01T09:00:41;100948.41;;;20.78
60731;BMP280;46580;52.114;11.674;2022-08-01T09:03:07;100958.09;;;20.91
60731;BMP280;46580;52.114;11.674;2022-08-01T09:05:32;100951.41;;;20.89
60731;BMP280;46580;52.114;11.674;2022-08-01T09:07:57;100948.88;;;20.81
60731;BMP280;46580;52.114;11.674;2022-08-01T09:10:23;100957.19;;;20.85
60731;BMP280;46580;52.114;11.674;2022-08-01T09:13:05;100958.59;;;20.95
60731;BMP280;46580;52.114;11.674;2022-08-01T09:15:57;100970.41;;;21.13
60731;BMP280;46580;52.114;11.674;2022-08-01T09:18:37;100965.19;;;21.05
60731;BMP280;46580;52.114;11.674;2022-08-01T09:23:35;100964.69;;;21.45
60731;BMP280;46580;52.114;11.674;2022-08-01T09:26:01;100960.56;;;21.65
60731;BMP280;46580;52.114;11.674;2022-08-01T09:28:28;100973.03;;;21.77
60731;BMP280;46580;52.114;11.674;2022-08-01T09:30:56;100968.88;;;21.68
60731;BMP280;46580;52.114;11.674;2022-08-01T09:33:21;100974.03;;;21.76
60731;BMP280;46580;52.114;11.674;2022-08-01T09:35:54;100983.53;;;21.91
60731;BMP280;46580;52.114;11.674;2022-08-01T09:38:22;100975.31;;;21.94
60731;BMP280;46580;52.114;11.674;2022-08-01T09:43:22;100978.69;;;21.88
60731;BMP280;46580;52.114;11.674;2022-08-01T09:45:48;100976.53;;;21.84
60731;BMP280;46580;52.114;11.674;2022-08-01T09:48:13;100979.84;;;21.86
60731;BMP280;46580;52.114;11.674;2022-08-01T09:50:50;100978.59;;;21.96
60731;BMP280;46580;52.114;11.674;2022-08-01T09:53:16;100983.91;;;22.02
60731;BMP280;46580;52.114;11.674;2022-08-01T09:55:42;100983.28;;;22.15
60731;BMP280;46580;52.114;11.674;2022-08-01T09:58:08;100994.41;;;22.17
60731;BMP280;46580;52.114;11.674;2022-08-01T10:00:35;100982.88;;;22.17
60731;BMP280;46580;52.114;11.674;2022-08-01T10:03:24;100996.63;;;22.34
60731;BMP280;46580;52.114;11.674;2022-08-01T10:05:50;100997.88;;;22.37
60731;BMP280;46580;52.114;11.674;2022-08-01T10:08:16;100998.22;;;22.63
60731;BMP280;46580;52.114;11.674;2022-08-01T10:11:09;101004.50;;;22.82
60731;BMP280;46580;52.114;11.674;2022-08-01T10:13:35;100990.97;;;23.06
60731;BMP280;46580;52.114;11.674;2022-08-01T10:16:01;100995.97;;;22.80
60731;BMP280;46580;52.114;11.674;2022-08-01T10:18:28;100993.72;;;22.57
60731;BMP280;46580;52.114;11.674;2022-08-01T10:20:55;100996.84;;;22.67
60731;BMP280;46580;52.114;11.674;2022-08-01T10:23:22;101006.34;;;22.68
60731;BMP280;46580;52.114;11.674;2022-08-01T10:25:50;100998.41;;;22.47
60731;BMP280;46580;52.114;11.674;2022-08-01T10:28:18;100998.63;;;22.17
60731;BMP280;46580;52.114;11.674;2022-08-01T10:30:45;100998.69;;;22.24
60731;BMP280;46580;52.114;11.674;2022-08-01T10:33:12;100993.44;;;22.24
60731;BMP280;46580;52.114;11.674;2022-08-01T10:35:41;100995.25;;;22.37
60731;BMP280;46580;52.114;11.674;2022-08-01T10:38:07;100991.91;;;22.43
60731;BMP280;46580;52.114;11.674;2022-08-01T10:40:32;100992.50;;;22.59
60731;BMP280;46580;52.114;11.674;2022-08-01T10:42:58;100981.41;;;22.78
60731;BMP280;46580;52.114;11.674;2022-08-01T10:45:24;100985.31;;;23.02
60731;BMP280;46580;52.114;11.674;2022-08-01T10:47:58;100982.97;;;22.93
60731;BMP280;46580;52.114;11.674;2022-08-01T10:50:38;100991.25;;;22.90
60731;BMP280;46580;52.114;11.674;2022-08-01T10:53:11;100986.38;;;22.87
60731;BMP280;46580;52.114;11.674;2022-08-01T10:58:18;100989.44;;;23.11
60731;BMP280;46580;52.114;11.674;2022-08-01T11:00:44;100988.72;;;23.23
60731;BMP280;46580;52.114;11.674;2022-08-01T11:03:10;100979.69;;;23.52
60731;BMP280;46580;52.114;11.674;2022-08-01T11:05:35;100985.34;;;23.49
60731;BMP280;46580;52.114;11.674;2022-08-01T11:08:20;100986.00;;;23.11
60731;BMP280;46580;52.114;11.674;2022-08-01T11:10:46;100996.22;;;23.06
60731;BMP280;46580;52.114;11.674;2022-08-01T11:13:12;100990.63;;;23.09
60731;BMP280;46580;52.114;11.674;2022-08-01T11:15:39;100998.31;;;22.90
60731;BMP280;46580;52.114;11.674;2022-08-01T11:20:56;100998.84;;;23.06
60731;BMP280;46580;52.114;11.674;2022-08-01T11:23:23;101001.88;;;23.03
60731;BMP280;46580;52.114;11.674;2022-08-01T11:30:44;101016.75;;;22.96
60731;BMP280;46580;52.114;11.674;2022-08-01T11:33:11;101009.63;;;22.90
60731;BMP280;46580;52.114;11.674;2022-08-01T11:35:38;101003.16;;;22.92
60731;BMP280;46580;52.114;11.674;2022-08-01T11:38:25;101006.56;;;23.28
60731;BMP280;46580;52.114;11.674;2022-08-01T11:41:17;101015.81;;;23.44
60731;BMP280;46580;52.114;11.674;2022-08-01T11:43:55;101010.84;;;23.55
60731;BMP280;46580;52.114;11.674;2022-08-01T11:49:27;100999.09;;;23.78
60731;BMP280;46580;52.114;11.674;2022-08-01T11:52:07;101007.09;;;23.64
60731;BMP280;46580;52.114;11.674;2022-08-01T11:54:35;101006.69;;;23.67
60731;BMP280;46580;52.114;11.674;2022-08-01T11:57:04;101008.88;;;23.90
60731;BMP280;46580;52.114;11.674;2022-08-01T11:59:36;101010.41;;;24.45
60731;BMP280;46580;52.114;11.674;2022-08-01T12:02:01;100996.22;;;25.04
60731;BMP280;46580;52.114;11.674;2022-08-01T12:04:44;100999.50;;;25.44
60731;BMP280;46580;52.114;11.674;2022-08-01T12:07:17;101004.72;;;25.06
60731;BMP280;46580;52.114;11.674;2022-08-01T12:09:42;101008.81;;;24.11
60731;BMP280;46580;52.114;11.674;2022-08-01T12:12:09;101010.06;;;24.15
60731;BMP280;46580;52.114;11.674;2022-08-01T12:14:35;101005.72;;;24.47
60731;BMP280;46580;52.114;11.674;2022-08-01T12:17:01;101008.69;;;24.71
60731;BMP280;46580;52.114;11.674;2022-08-01T12:19:26;101004.91;;;24.86
60731;BMP280;46580;52.114;11.674;2022-08-01T12:22:09;101002.19;;;24.73
60731;BMP280;46580;52.114;11.674;2022-08-01T12:24:35;100999.25;;;25.14
60731;BMP280;46580;52.114;11.674;2022-08-01T12:27:05;100995.44;;;25.29
60731;BMP280;46580;52.114;11.674;2022-08-01T12:29:39;101000.66;;;25.17
60731;BMP280;46580;52.114;11.674;2022-08-01T12:32:30;101015.19;;;24.75
60731;BMP280;46580;52.114;11.674;2022-08-01T12:35:00;101005.53;;;24.48
60731;BMP280;46580;52.114;11.674;2022-08-01T12:37:26;101009.41;;;24.46
60731;BMP280;46580;52.114;11.674;2022-08-01T12:39:52;101011.91;;;24.21
60731;BMP280;46580;52.114;11.674;2022-08-01T12:42:18;101013.66;;;24.07
60731;BMP280;46580;52.114;11.674;2022-08-01T12:44:45;101013.38;;;23.96
60731;BMP280;46580;52.114;11.674;2022-08-01T12:47:11;101012.25;;;23.78
60731;BMP280;46580;52.114;11.674;2022-08-01T12:49:38;101001.19;;;23.89
60731;BMP280;46580;52.114;11.674;2022-08-01T12:52:05;101011.25;;;23.85
60731;BMP280;46580;52.114;11.674;2022-08-01T12:55:08;101018.41;;;23.65
60731;BMP280;46580;52.114;11.674;2022-08-01T12:57:38;101024.59;;;24.11
60731;BMP280;46580;52.114;11.674;2022-08-01T13:02:34;101018.56;;;24.17
60731;BMP280;46580;52.114;11.674;2022-08-01T13:05:00;101018.06;;;24.01
60731;BMP280;46580;52.114;11.674;2022-08-01T13:07:41;101012.66;;;23.82
60731;BMP280;46580;52.114;11.674;2022-08-01T13:10:08;101021.50;;;23.74
60731;BMP280;46580;52.114;11.674;2022-08-01T13:12:37;101012.38;;;23.97
60731;BMP280;46580;52.114;11.674;2022-08-01T13:15:24;101013.13;;;24.18
60731;BMP280;46580;52.114;11.674;2022-08-01T13:17:51;101011.09;;;24.20
60731;BMP280;46580;52.114;11.674;2022-08-01T13:20:32;101022.09;;;24.36
60731;BMP280;46580;52.114;11.674;2022-08-01T13:23:16;101019.22;;;24.25
60731;BMP280;46580;52.114;11.674;2022-08-01T13:25:55;101015.53;;;24.20
60731;BMP280;46580;52.114;11.674;2022-08-01T13:28:26;101008.59;;;24.52
60731;BMP280;46580;52.114;11.674;2022-08-01T13:31:00;101007.56;;;25.05
60731;BMP280;46580;52.114;11.674;2022-08-01T13:33:43;100994.63;;;25.48
60731;BMP280;46580;52.114;11.674;2022-08-01T13:36:09;101007.16;;;26.03
60731;BMP280;46580;52.114;11.674;2022-08-01T13:38:34;101001.94;;;25.58
60731;BMP280;46580;52.114;11.674;2022-08-01T13:41:19;100994.63;;;25.48
60731;BMP280;46580;52.114;11.674;2022-08-01T13:43:44;101001.13;;;25.45
60731;BMP280;46580;52.114;11.674;2022-08-01T13:46:10;101003.06;;;26.13
60731;BMP280;46580;52.114;11.674;2022-08-01T13:48:35;100992.53;;;25.81
60731;BMP280;46580;52.114;11.674;2022-08-01T13:51:01;100998.44;;;25.83
60731;BMP280;46580;52.114;11.674;2022-08-01T13:53:26;101003.03;;;26.19
60731;BMP280;46580;52.114;11.674;2022-08-01T13:55:53;100993.81;;;25.60
60731;BMP280;46580;52.114;11.674;2022-08-01T13:58:19;100994.00;;;25.58
60731;BMP280;46580;52.114;11.674;2022-08-01T14:00:44;101012.88;;;25.49
60731;BMP280;46580;52.114;11.674;2022-08-01T14:03:13;101005.34;;;25.78
60731;BMP280;46580;52.114;11.674;2022-08-01T14:05:39;101008.69;;;26.23
60731;BMP280;46580;52.114;11.674;2022-08-01T14:08:05;101012.63;;;25.95
60731;BMP280;46580;52.114;11.674;2022-08-01T14:10:31;101026.84;;;25.69
60731;BMP280;46580;52.114;11.674;2022-08-01T14:13:00;101025.03;;;25.50
60731;BMP280;46580;52.114;11.674;2022-08-01T14:15:25;101021.00;;;25.67
60731;BMP280;46580;52.114;11.674;2022-08-01T14:17:51;101018.50;;;26.10
60731;BMP280;46580;52.114;11.674;2022-08-01T14:20:17;101019.53;;;26.02
60731;BMP280;46580;52.114;11.674;2022-08-01T14:22:45;101025.47;;;25.60
60731;BMP280;46580;52.114;11.674;2022-08-01T14:25:11;101022.94;;;26.09
60731;BMP280;46580;52.114;11.674;2022-08-01T14:27:36;101013.31;;;26.40